• Join FlightAware (Why Join?)
  • Login
  • US Flag 
09:58AM EDT


 

Airport Tracker/Info


-or-


 

Live Flight TrackerFlight Track Log ✈ SWA3677 ✈ 03-May-2013 ✈ KTPA - KMHT

Flight Track Log - Related Links

Times and Time Zones

All times are in EDT time to prevent confusion due to time zone crossing. See the SWA3677 flight status page for this flight to view local times or setup timezone preferences in your user account.

Time Position Orientation Groundspeed Altitude Reporting Facility
EDT Latitude Longitude Course Direction KTS MPH feet Rate Location/Type
10:53AM 27.9667 -82.5500 190° South 167 192 700  Level Tampa TRACON
10:55AM 27.8833 -82.5667 190° South 207 238 3,900 1,920 Climbing Tampa TRACON
10:56AM 27.8833 -82.6500 270° West 271 312 5,700 2,220 Climbing Tampa TRACON
10:58AM 27.9933 -82.6739 349° North 292 336 9,800 2,280 Climbing Jacksonville Center
10:59AM 28.0808 -82.6878 352° North 294 338 11,600 2,400 Climbing Jacksonville Center
11:00AM 28.1811 -82.6972 355° North 333 383 14,600 2,700 Climbing Jacksonville Center
11:01AM 28.2856 -82.7039 357° North 356 410 17,100 1,200 Climbing Jacksonville Center
11:02AM 28.3878 -82.6897 North 361 415 17,000 60 Descending Jacksonville Center
11:03AM 28.4897 -82.6542 17° North 370 426 17,300 1,380 Climbing Jacksonville Center
11:04AM 28.5942 -82.6158 18° North 376 433 19,800 1,260 Climbing Jacksonville Center
11:05AM 28.7006 -82.5897 12° North 382 440 19,900  Climbing Jacksonville Center
11:06AM 28.8092 -82.6083 351° North 382 440 19,900 1,080 Level Jacksonville Center
11:07AM 28.9175 -82.6244 353° North 388 447 22,100 2,040 Climbing Jacksonville Center
11:08AM 29.0303 -82.6408 353° North 395 455 24,000 1,860 Climbing Jacksonville Center
11:09AM 29.1453 -82.6761 345° North 407 468 25,900 1,860 Climbing Jacksonville Center
11:10AM 29.2581 -82.7331 336° Northwest 428 493 27,800 1,680 Climbing Jacksonville Center
11:11AM 29.3814 -82.7592 350° North 434 499 29,300 1,500 Climbing Jacksonville Center
11:12AM 29.5189 -82.7089 18° North 448 516 30,800 1,740 Climbing Jacksonville Center
11:13AM 29.6378 -82.6511 23° Northeast 462 532 32,800 1,740 Climbing Jacksonville Center
11:14AM 29.7608 -82.5936 22° Northeast 462 532 34,300 1,020 Climbing Jacksonville Center
11:15AM 29.8819 -82.5333 23° Northeast 462 532 34,900 300 Climbing Jacksonville Center
11:16AM 30.0092 -82.5422 357° North 453 521 34,900  Level Jacksonville Center
11:17AM 30.1367 -82.5828 345° North 447 514 34,900 300 Level Jacksonville Center
11:18AM 30.2597 -82.5583 10° North 446 513 35,600 960 Climbing Jacksonville Center
11:19AM 30.3828 -82.5097 19° North 446 513 36,900 600 Climbing Jacksonville Center
11:20AM 30.5039 -82.4611 19° North 452 520 36,900  Level Jacksonville Center
11:21AM 30.6267 -82.4097 20° North 464 534 36,900  Level Jacksonville Center
11:22AM 30.7497 -82.3631 18° North 464 534 37,000  Climbing Jacksonville Center
11:23AM 30.8728 -82.3142 19° North 464 534 36,900 -60 Descending Jacksonville Center
11:24AM 30.9958 -82.2625 20° North 464 534 36,900  Level Jacksonville Center
11:25AM 31.1186 -82.2131 19° North 464 534 36,900  Level Jacksonville Center
11:26AM 31.2144 -82.1639 24° Northeast 464 534 36,900  Level Jacksonville Center
11:27AM 31.3436 -82.0972 24° Northeast 464 534 36,900  Level Jacksonville Center
11:28AM 31.4642 -82.0328 25° Northeast 464 534 36,900  Level Jacksonville Center
11:29AM 31.5953 -81.9633 24° Northeast 455 524 37,000  Climbing Jacksonville Center
11:30AM 31.7014 -81.9061 25° Northeast 463 533 37,000  Level Jacksonville Center
11:31AM 31.8322 -81.8361 24° Northeast 463 533 37,000  Level Jacksonville Center
11:32AM 31.9383 -81.7786 25° Northeast 463 533 37,000  Level Jacksonville Center
11:33AM 32.0711 -81.7108 23° Northeast 457 526 37,000  Level Jacksonville Center
11:34AM 32.1917 -81.6456 25° Northeast 471 542 37,000  Level Jacksonville Center
11:35AM 32.2997 -81.5875 24° Northeast 471 542 37,000  Level Jacksonville Center
11:36AM 32.4347 -81.5142 25° Northeast 477 549 37,100 720 Climbing Jacksonville Center
11:37AM 32.5528 -81.4483 25° Northeast 477 549 38,500 900 Climbing Jacksonville Center
11:38AM 32.6608 -81.3922 24° Northeast 471 542 39,000 180 Climbing Jacksonville Center
11:39AM 32.7769 -81.3261 26° Northeast 466 536 38,900 -60 Descending Jacksonville Center
11:40AM 32.8950 -81.2622 24° Northeast 458 527 38,900  Level Jacksonville Center
11:41AM 33.0131 -81.1956 25° Northeast 458 527 38,900  Level Jacksonville Center
11:42AM 33.1333 -81.1314 24° Northeast 458 527 38,900  Level Jacksonville Center
11:43AM 33.2597 -81.0619 25° Northeast 463 533 38,900  Level Jacksonville Center
11:44AM 33.3817 -80.9947 25° Northeast 463 533 38,900  Level Jacksonville Center
11:45AM 33.5019 -80.9272 25° Northeast 463 533 38,900  Level Jacksonville Center
11:46AM 33.6217 -80.8597 25° Northeast 463 533 38,900  Level Jacksonville Center
11:47AM 33.7458 -80.7919 24° Northeast 473 544 38,900  Level Jacksonville Center
11:48AM 33.8658 -80.7242 25° Northeast 473 544 38,900  Level Jacksonville Center
11:49AM 33.9878 -80.6583 24° Northeast 478 550 38,900  Level Jacksonville Center
11:50AM 34.1075 -80.5878 26° Northeast 478 550 38,900  Level Jacksonville Center
11:51AM 34.2253 -80.5242 24° Northeast 473 544 38,900  Level Jacksonville Center
11:52AM 34.3450 -80.4531 26° Northeast 473 544 38,900  Level Jacksonville Center
11:53AM 34.4644 -80.3842 25° Northeast 473 544 38,900  Level Jacksonville Center
11:55AM 34.6906 -80.1336 42° Northeast 463 533 39,000  Climbing Washington Center
11:56AM 34.7844 -80.0275 43° Northeast 469 540 39,000  Level Washington Center
11:57AM 34.8950 -79.9069 42° Northeast 469 540 39,000  Level Washington Center
11:58AM 34.9928 -79.8006 42° Northeast 464 534 39,000  Level Washington Center
11:59AM 35.0886 -79.6889 44° Northeast 464 534 39,000  Level Washington Center
12:00PM 35.1842 -79.5792 43° Northeast 464 534 39,000  Level Washington Center
12:01PM 35.2817 -79.4697 42° Northeast 464 534 39,000  Level Washington Center
12:02PM 35.3811 -79.3572 43° Northeast 464 534 39,000  Level Washington Center
12:03PM 35.4678 -79.2594 43° Northeast 464 534 39,000  Level Washington Center
12:04PM 35.5608 -79.1461 45° Northeast 459 528 39,000  Level Washington Center
12:05PM 35.6644 -79.0306 42° Northeast 459 528 39,000  Level Washington Center
12:06PM 35.7592 -78.9222 43° Northeast 459 528 39,000  Level Washington Center
12:07PM 35.8542 -78.8108 44° Northeast 459 528 39,000  Level Washington Center
12:08PM 35.9547 -78.7147 38° Northeast 459 528 39,000  Level Washington Center
12:09PM 36.0572 -78.6239 36° Northeast 459 528 39,000  Level Washington Center
12:10PM 36.1639 -78.5328 35° Northeast 453 521 39,000  Level Washington Center
12:11PM 36.2639 -78.4436 36° Northeast 447 514 39,000  Level Washington Center
12:12PM 36.3642 -78.3544 36° Northeast 447 514 39,000  Level Washington Center
12:13PM 36.4686 -78.2625 35° Northeast 452 520 39,000  Level Washington Center
12:14PM 36.5706 -78.1706 36° Northeast 452 520 39,000  Level Washington Center
12:15PM 36.6706 -78.0806 36° Northeast 447 514 39,000  Level Washington Center
12:16PM 36.7728 -77.9878 36° Northeast 447 514 39,000  Level Washington Center
12:17PM 36.8747 -77.8844 39° Northeast 447 514 39,000  Level Washington Center
12:18PM 36.9522 -77.7542 53° Northeast 453 521 39,000  Level Washington Center
12:19PM 37.0275 -77.6289 53° Northeast 459 528 39,000  Level Washington Center
12:20PM 37.1028 -77.5006 54° Northeast 459 528 39,000  Level Washington Center
12:21PM 37.1797 -77.3697 54° Northeast 459 528 39,000  Level Washington Center
12:22PM 37.2525 -77.2436 54° Northeast 459 528 39,000  Level Washington Center
12:23PM 37.3228 -77.1300 52° Northeast 454 522 39,000  Level Washington Center
12:24PM 37.4367 -77.0356 33° Northeast 442 509 39,000  Level Washington Center
12:25PM 37.5375 -76.9642 29° Northeast 442 509 39,000  Level Washington Center
12:26PM 37.6386 -76.8872 31° Northeast 442 509 39,000  Level Washington Center
12:27PM 37.7417 -76.8103 31° Northeast 432 497 39,000  Level Washington Center
12:28PM 37.8467 -76.7306 31° Northeast 432 497 39,000  Level Washington Center
12:29PM 37.9517 -76.6531 30° Northeast 432 497 39,000  Level Washington Center
12:30PM 38.0567 -76.5753 30° Northeast 432 497 39,000  Level Washington Center
12:31PM 38.1614 -76.4950 31° Northeast 432 497 39,000  Level Washington Center
12:32PM 38.2789 -76.4064 31° Northeast 432 497 39,000  Level Washington Center
12:33PM 38.3647 -76.3278 36° Northeast 432 497 39,000  Level Washington Center
12:34PM 38.4614 -76.2386 36° Northeast 427 491 39,000  Level Washington Center
12:35PM 38.5722 -76.1333 37° Northeast 441 507 39,000 -60 Level Washington Center
12:36PM 38.6644 -76.0517 35° Northeast 447 514 38,900 -60 Descending Washington Center
12:37PM 38.7628 -75.9617 36° Northeast 442 509 38,900  Level Washington Center
12:38PM 38.8589 -75.8689 37° Northeast 436 502 38,900  Level Washington Center
12:39PM 38.9569 -75.7758 36° Northeast 436 502 38,900  Level Washington Center
12:40PM 39.0550 -75.6853 36° Northeast 431 496 38,900  Level Washington Center
12:41PM 39.1531 -75.5942 36° Northeast 431 496 38,900  Level Washington Center
12:42PM 39.2489 -75.5031 36° Northeast 431 496 38,900  Level Washington Center
12:43PM 39.3467 -75.4117 36° Northeast 431 496 38,900  Level Washington Center
12:44PM 39.4444 -75.3256 34° Northeast 431 496 38,900  Level Washington Center
12:45PM 39.5422 -75.2389 34° Northeast 431 496 38,900  Level Washington Center
12:46PM 39.6356 -75.1522 36° Northeast 426 490 38,900  Level Washington Center
12:46PM 39.6728 -75.1214 33° Northeast 428 493 38,900 60 Level New York Center
12:47PM 39.7719 -75.0275 36° Northeast 446 513 39,000  Climbing New York Center
12:48PM 39.8664 -74.9494 32° Northeast 433 498 39,000 -60 Level New York Center
12:49PM 39.9786 -74.8450 35° Northeast 426 490 38,900 -60 Descending New York Center
12:50PM 40.0644 -74.7714 33° Northeast 426 490 38,900  Level New York Center
12:51PM 40.1592 -74.6819 36° Northeast 426 490 38,900  Level New York Center
12:52PM 40.2583 -74.5786 38° Northeast 419 482 38,900  Level New York Center
12:53PM 40.3550 -74.4914 35° Northeast 413 475 38,900  Level New York Center
12:54PM 40.4475 -74.3981 38° Northeast 413 475 38,900  Level New York Center
12:55PM 40.5397 -74.3103 36° Northeast 413 475 38,900  Level New York Center
12:57PM 40.7056 -74.1511 36° Northeast 406 467 38,900  Level Boston Center
12:58PM 40.7900 -74.0711 36° Northeast 412 474 38,900  Level Boston Center
12:59PM 40.8831 -73.9803 36° Northeast 412 474 38,900  Level Boston Center
01:00PM 40.9739 -73.8889 37° Northeast 412 474 38,900  Level Boston Center
01:01PM 41.0667 -73.7972 37° Northeast 412 474 38,900  Level Boston Center
01:02PM 41.1594 -73.7056 37° Northeast 417 480 38,900  Level Boston Center
01:03PM 41.2642 -73.6744 13° North 387 445 38,900  Level Boston Center
01:04PM 41.3744 -73.6822 357° North 378 435 38,900 -360 Level Boston Center
01:05PM 41.4869 -73.6925 356° North 383 441 38,200 -840 Descending Boston Center
01:06PM 41.5950 -73.7031 356° North 383 441 37,300 -900 Descending Boston Center
01:07PM 41.7075 -73.7108 357° North 388 447 36,400 -1,380 Descending Boston Center
01:08PM 41.8261 -73.7272 354° North 388 447 34,600 -1,680 Descending Boston Center
01:09PM 41.9158 -73.7344 357° North 388 447 33,100 -840 Descending Boston Center
01:10PM 42.0511 -73.7458 356° North 393 452 33,000 -1,260 Descending Boston Center
01:11PM 42.1636 -73.7564 356° North 399 459 30,600 -2,460 Descending Boston Center
01:12PM 42.2783 -73.7450 North 405 466 28,100 -2,520 Descending Boston Center
01:13PM 42.3464 -73.6114 55° Northeast 384 442 25,600 -2,160 Descending Boston Center
01:14PM 42.3978 -73.4633 65° Northeast 398 458 23,800 -1,440 Descending Boston Center
01:15PM 42.4450 -73.3208 66° East 468 539 22,800 -1,020 Descending Boston Center
01:17PM 42.5425 -73.0403 65° Northeast 413 475 20,800 -1,020 Descending Boston Center
01:18PM 42.5892 -72.9053 65° Northeast 395 455 19,800 -900 Descending Boston Center
01:19PM 42.6250 -72.7675 70° East 390 449 19,000 -420 Descending Boston Center
01:20PM 42.6567 -72.6319 72° East 385 443 19,000 -600 Level Boston Center
01:21PM 42.6881 -72.5050 71° East 371 427 17,800 -1,920 Descending Boston Center
01:22PM 42.7172 -72.3781 73° East 358 412 15,200 -2,580 Descending Boston Center
01:23PM 42.7442 -72.2478 74° East 353 406 12,700 -2,280 Descending Boston Center
01:24PM 42.7772 -72.1147 71° East 340 391 10,700 -1,380 Descending Boston Center
01:25PM 42.7956 -72.0186 75° East 310 357 10,000 -1,260 Descending Boston Center
01:26PM 42.8181 -71.9108 74° East 270 311 8,200 -1,860 Descending Boston Center
01:27PM 42.8364 -71.8228 74° East 265 305 6,300 -1,800 Descending Boston Center
01:28PM 42.8400 -71.7236 87° East 242 278 4,700 -1,500 Descending Boston Center
01:29PM 42.7939 -71.6733 141° Southeast 208 239 3,400 -1,200 Descending Boston Center
01:30PM 42.8225 -71.5936 64° Northeast 198 228 2,300 -720 Descending Boston Center
01:31PM 42.8575 -71.5394 49° Northeast 203 234 2,000 -600 Descending Boston Center
01:32PM 42.8986 -71.4878 43° Northeast 189 217 1,100 3,480 Descending Boston Center
01:33PM 42.9233 -71.4561 43° Northeast 145 167 9,000 3,900 Climbing Boston Center
01:34PM 42.9586 -71.4158 40° Northeast 145 167 9,000  Level Boston Center
01:35PM 42.9894 -71.3786 41° Northeast 145 167 9,000  Level Boston Center
01:36PM 43.0203 -71.3439 39° Northeast 145 167 9,000  Level Boston Center
01:37PM 43.0514 -71.3064 41° Northeast 145 167 9,000  Level Boston Center
01:39PM 42.9286 -71.4221 215° Southwest  Level FlightAware Approximate
01:46PM 42.9167 -71.4333 216° Southwest  Level FlightAware Approximate
01:47PM 42.9328 -71.4358 216° Southwest  Level Estimated
01:48PM 42.9328 -71.4358 216° Southwest  Level Estimated
01:49PM 42.9328 -71.4358 216° Southwest  Level Estimated
01:50PM 42.9328 -71.4358 216° Southwest  Level Estimated
01:51PM 42.9328 -71.4358 216° Southwest  Level Estimated
01:52PM 42.9328 -71.4358 216° Southwest  Level Estimated